createdAt,value
2023-03-29T00:00:33.419Z,46.74
2023-03-29T00:03:02.837Z,49.42
2023-03-29T00:05:34.030Z,55.62
2023-03-29T00:08:04.571Z,58.73
2023-03-29T00:10:33.792Z,56.25
2023-03-29T00:13:02.548Z,58.08
2023-03-29T00:15:30.167Z,56.72
2023-03-29T00:17:58.218Z,58.30
2023-03-29T00:20:25.822Z,52.65
2023-03-29T00:22:53.369Z,50.24
2023-03-29T00:25:21.014Z,49.27
2023-03-29T00:27:48.644Z,47.35
2023-03-29T00:30:18.497Z,47.40
2023-03-29T00:32:46.254Z,47.33
2023-03-29T00:35:14.141Z,48.39
2023-03-29T00:37:41.976Z,46.28
2023-03-29T00:40:15.549Z,51.75
2023-03-29T00:42:49.068Z,52.17
2023-03-29T00:45:21.857Z,52.12
2023-03-29T00:47:57.257Z,51.80
2023-03-29T00:50:41.512Z,53.71
2023-03-29T00:53:15.202Z,56.17
2023-03-29T00:55:55.279Z,58.42
2023-03-29T00:58:53.112Z,60.30
2023-03-29T01:01:34.238Z,54.57
2023-03-29T01:04:08.916Z,54.17
2023-03-29T01:06:39.563Z,49.80
2023-03-29T01:09:12.766Z,48.73
2023-03-29T01:11:46.182Z,48.02
2023-03-29T01:14:26.949Z,49.68
2023-03-29T01:16:56.710Z,48.96
2023-03-29T01:19:30.489Z,50.18
2023-03-29T01:22:38.709Z,51.23
2023-03-29T01:25:50.995Z,51.67
2023-03-29T01:28:23.370Z,53.15
2023-03-29T01:31:09.365Z,54.45
2023-03-29T01:33:46.379Z,55.72
2023-03-29T01:36:35.070Z,53.48
2023-03-29T01:39:08.411Z,51.70
2023-03-29T01:41:52.581Z,52.98
2023-03-29T01:44:30.806Z,55.01
2023-03-29T01:47:23.189Z,52.28
2023-03-29T01:50:15.696Z,53.37
2023-03-29T01:52:57.830Z,55.66
2023-03-29T01:55:31.855Z,57.07
2023-03-29T01:58:03.482Z,60.46
2023-03-29T02:00:34.413Z,60.89
2023-03-29T02:03:08.449Z,61.52
2023-03-29T02:05:39.363Z,63.45
2023-03-29T02:08:11.037Z,62.50
2023-03-29T02:10:38.606Z,64.19
2023-03-29T02:13:06.327Z,66.62
2023-03-29T02:15:34.244Z,66.14
2023-03-29T02:18:04.238Z,66.84
2023-03-29T02:20:40.646Z,64.73
2023-03-29T02:23:14.591Z,63.42
2023-03-29T02:25:45.846Z,63.29
2023-03-29T02:28:14.686Z,63.23
2023-03-29T02:31:05.526Z,65.23
2023-03-29T02:33:57.249Z,67.88
2023-03-29T02:36:44.164Z,68.42
2023-03-29T02:39:15.859Z,69.86
2023-03-29T02:41:47.594Z,69.71
2023-03-29T02:44:28.261Z,69.88
2023-03-29T02:47:03.197Z,71.21
2023-03-29T02:49:59.100Z,71.72
2023-03-29T02:52:34.317Z,72.42
2023-03-29T02:55:06.811Z,72.07
2023-03-29T02:57:37.239Z,70.49
2023-03-29T03:00:10.386Z,70.81
2023-03-29T03:02:38.414Z,70.17
2023-03-29T03:05:09.274Z,70.61
2023-03-29T03:07:37.496Z,69.72
2023-03-29T03:10:05.568Z,70.95
2023-03-29T03:12:37.994Z,71.71
2023-03-29T03:15:06.736Z,72.79
2023-03-29T03:17:40.046Z,73.07
2023-03-29T03:20:13.038Z,73.49
2023-03-29T03:22:49.113Z,74.85
2023-03-29T03:25:19.557Z,73.75
2023-03-29T03:27:50.441Z,72.39
2023-03-29T03:30:21.636Z,73.59
2023-03-29T03:33:12.328Z,73.02
2023-03-29T03:36:02.981Z,73.28
2023-03-29T03:38:33.000Z,73.49
2023-03-29T03:41:02.479Z,73.49
2023-03-29T03:43:34.233Z,72.27
2023-03-29T03:46:02.339Z,71.08
2023-03-29T03:48:31.689Z,71.50
2023-03-29T03:51:09.674Z,72.40
2023-03-29T03:53:37.237Z,73.76
2023-03-29T03:56:14.140Z,73.61
2023-03-29T03:59:01.197Z,72.98
2023-03-29T04:01:31.965Z,70.36
2023-03-29T04:04:07.000Z,72.26
2023-03-29T04:06:34.779Z,72.98
2023-03-29T04:09:31.362Z,72.88
2023-03-29T04:12:13.763Z,74.50
2023-03-29T04:14:48.828Z,72.43
2023-03-29T04:17:23.268Z,71.39
2023-03-29T04:20:15.124Z,70.88
2023-03-29T04:22:42.847Z,69.32
2023-03-29T04:25:11.830Z,70.03
2023-03-29T04:27:50.619Z,69.63
2023-03-29T04:30:36.057Z,69.67
2023-03-29T04:33:06.394Z,70.07
2023-03-29T04:35:35.198Z,71.62
2023-03-29T04:38:10.260Z,67.97
2023-03-29T04:40:38.901Z,69.19
2023-03-29T04:43:14.647Z,69.66
2023-03-29T04:45:54.292Z,68.61
2023-03-29T04:48:42.106Z,68.46
2023-03-29T04:51:09.949Z,67.54
2023-03-29T04:53:37.786Z,69.36
2023-03-29T04:56:08.188Z,68.53
2023-03-29T04:58:54.928Z,67.26
2023-03-29T05:01:48.807Z,69.19
2023-03-29T05:04:18.570Z,70.59
2023-03-29T05:07:02.271Z,66.93
2023-03-29T05:09:32.469Z,66.63
2023-03-29T05:12:02.351Z,69.83
2023-03-29T05:14:37.804Z,70.77
2023-03-29T05:17:06.643Z,70.56
2023-03-29T05:19:38.661Z,71.55
2023-03-29T05:22:09.409Z,67.62
2023-03-29T05:24:38.148Z,68.95
2023-03-29T05:27:17.289Z,67.09
2023-03-29T05:29:54.492Z,63.18
2023-03-29T05:32:27.705Z,65.16
2023-03-29T05:34:58.863Z,65.84
2023-03-29T05:37:27.523Z,65.10
2023-03-29T05:40:05.921Z,61.37
2023-03-29T05:42:39.779Z,62.66
2023-03-29T05:45:11.701Z,61.77
2023-03-29T05:47:41.871Z,62.78
2023-03-29T05:50:10.474Z,62.92
2023-03-29T05:52:38.907Z,64.12
2023-03-29T05:55:07.553Z,67.86
2023-03-29T05:57:38.854Z,67.03
2023-03-29T06:00:20.358Z,68.90
2023-03-29T06:02:48.189Z,70.63
2023-03-29T06:05:20.202Z,70.30
2023-03-29T06:08:01.881Z,72.49
2023-03-29T06:11:05.186Z,72.72
2023-03-29T06:14:08.328Z,73.33
2023-03-29T06:16:42.821Z,71.03
2023-03-29T06:19:11.593Z,73.11
2023-03-29T06:21:41.399Z,71.97
2023-03-29T06:24:11.168Z,71.55
2023-03-29T06:26:45.225Z,71.54
2023-03-29T06:29:13.350Z,69.11
2023-03-29T06:31:54.608Z,67.14
2023-03-29T06:34:45.289Z,68.36
2023-03-29T06:37:32.898Z,68.56
2023-03-29T06:40:24.815Z,68.29
2023-03-29T06:42:58.060Z,68.36
2023-03-29T06:45:44.918Z,68.27
2023-03-29T06:51:07.778Z,62.67
2023-03-29T06:53:36.803Z,62.54
2023-03-29T06:56:09.465Z,63.87
2023-03-29T06:58:45.037Z,61.49
2023-03-29T07:01:28.845Z,59.17
2023-03-29T07:04:04.952Z,59.18
2023-03-29T07:06:39.421Z,59.95
2023-03-29T07:09:13.088Z,57.92
2023-03-29T07:12:01.757Z,55.56
2023-03-29T07:14:30.999Z,54.83
2023-03-29T07:17:02.688Z,54.62
2023-03-29T07:19:35.232Z,46.46
2023-03-29T07:22:10.029Z,44.15
2023-03-29T07:24:51.533Z,43.87
2023-03-29T07:27:19.769Z,40.17
2023-03-29T07:29:51.702Z,38.33
2023-03-29T07:32:20.098Z,37.19
2023-03-29T07:35:09.048Z,39.29
2023-03-29T07:37:37.586Z,37.53
2023-03-29T07:40:18.402Z,36.83
2023-03-29T07:42:59.061Z,36.81
2023-03-29T07:45:31.123Z,33.03
2023-03-29T07:48:06.522Z,35.72
2023-03-29T07:50:49.037Z,36.84
2023-03-29T07:53:19.594Z,34.83
2023-03-29T07:55:49.250Z,30.17
2023-03-29T07:58:49.268Z,27.76
2023-03-29T08:01:20.034Z,29.41
2023-03-29T08:04:18.131Z,28.54
2023-03-29T08:07:04.113Z,27.36
2023-03-29T08:09:50.952Z,33.16
2023-03-29T08:12:20.146Z,31.09
2023-03-29T08:14:48.048Z,27.44
2023-03-29T08:17:26.991Z,26.63
2023-03-29T08:19:54.721Z,26.57
2023-03-29T08:22:24.898Z,29.66
2023-03-29T08:25:18.914Z,28.69
2023-03-29T08:27:50.394Z,31.37
2023-03-29T08:30:29.169Z,30.09
2023-03-29T08:32:58.241Z,33.04
2023-03-29T08:35:25.989Z,30.36
2023-03-29T08:38:08.445Z,29.06
2023-03-29T08:40:37.462Z,28.55
2023-03-29T08:44:04.602Z,27.99
2023-03-29T08:46:44.672Z,28.34
2023-03-29T08:49:27.666Z,29.80
2023-03-29T08:52:02.333Z,31.12
2023-03-29T08:54:44.457Z,35.56
2023-03-29T08:57:36.136Z,28.01
2023-03-29T09:00:29.421Z,28.41
2023-03-29T09:02:59.156Z,30.52
2023-03-29T09:05:28.915Z,28.08
2023-03-29T09:08:20.685Z,28.36
2023-03-29T09:11:17.524Z,30.27
2023-03-29T09:14:01.466Z,27.67
2023-03-29T09:16:33.617Z,28.44
2023-03-29T09:19:25.724Z,28.17
2023-03-29T09:22:03.205Z,27.44
2023-03-29T09:24:46.751Z,29.11
2023-03-29T09:27:54.414Z,27.94
2023-03-29T09:30:43.356Z,28.27
2023-03-29T09:33:37.462Z,26.85
2023-03-29T09:36:37.184Z,28.05
2023-03-29T09:39:05.802Z,27.83
2023-03-29T09:41:46.846Z,27.24
2023-03-29T09:44:30.253Z,25.97
2023-03-29T09:47:31.641Z,27.41
2023-03-29T09:50:23.156Z,33.35
2023-03-29T09:52:57.619Z,33.16
2023-03-29T09:55:29.528Z,31.36
2023-03-29T09:58:15.298Z,30.39
2023-03-29T10:00:50.750Z,32.99
2023-03-29T10:03:23.200Z,30.23
2023-03-29T10:06:16.116Z,30.87
2023-03-29T10:08:59.100Z,33.06
2023-03-29T10:11:39.959Z,34.50
2023-03-29T10:14:14.274Z,35.39
2023-03-29T10:16:52.743Z,32.95
2023-03-29T10:19:22.840Z,36.41
2023-03-29T10:21:53.056Z,36.49
2023-03-29T10:24:22.784Z,33.67
2023-03-29T10:27:02.757Z,36.14
2023-03-29T10:29:42.425Z,36.88
2023-03-29T10:32:23.380Z,38.68
2023-03-29T10:34:52.176Z,37.24
2023-03-29T10:37:21.285Z,37.89
2023-03-29T10:39:54.486Z,39.22
2023-03-29T10:42:24.801Z,38.13
2023-03-29T10:44:56.686Z,36.83
2023-03-29T10:47:24.996Z,38.09
2023-03-29T10:49:58.971Z,41.12
2023-03-29T10:52:26.713Z,38.06
2023-03-29T10:54:56.472Z,39.87
2023-03-29T10:57:57.757Z,39.03
2023-03-29T11:00:34.172Z,39.58
2023-03-29T11:03:26.253Z,43.14
2023-03-29T11:06:03.160Z,41.63
2023-03-29T11:08:54.416Z,41.10
2023-03-29T11:11:41.289Z,40.45
2023-03-29T11:14:32.899Z,39.59
2023-03-29T11:17:34.959Z,45.38
2023-03-29T11:20:29.654Z,46.36
2023-03-29T11:23:05.993Z,41.08
2023-03-29T11:25:45.979Z,41.49
2023-03-29T11:28:28.981Z,40.52
2023-03-29T11:31:13.446Z,40.30
2023-03-29T11:33:58.866Z,42.09
2023-03-29T11:36:38.071Z,44.57
2023-03-29T11:39:21.023Z,43.44
2023-03-29T11:41:53.122Z,45.60
2023-03-29T11:44:27.132Z,42.94
2023-03-29T11:47:07.317Z,43.00
2023-03-29T11:49:43.155Z,43.53
2023-03-29T11:52:19.715Z,43.69
2023-03-29T11:55:03.534Z,45.72
2023-03-29T11:57:36.817Z,40.64
2023-03-29T12:00:14.873Z,43.01
2023-03-29T12:02:48.616Z,43.57
2023-03-29T12:05:24.691Z,43.79
2023-03-29T12:07:58.186Z,40.86
2023-03-29T12:10:36.229Z,43.18
2023-03-29T12:13:15.335Z,40.42
2023-03-29T12:15:54.018Z,39.66
2023-03-29T12:18:27.450Z,41.25
2023-03-29T12:21:01.547Z,40.85
2023-03-29T12:23:32.711Z,42.01
2023-03-29T12:26:25.593Z,41.33
2023-03-29T12:29:12.258Z,40.82
2023-03-29T12:31:47.034Z,40.78
2023-03-29T12:34:35.116Z,40.70
2023-03-29T12:37:39.360Z,40.24
2023-03-29T12:40:28.940Z,42.56
2023-03-29T12:43:39.688Z,42.26
2023-03-29T12:46:35.516Z,43.47
2023-03-29T12:49:26.961Z,41.77
2023-03-29T12:51:57.282Z,42.29
2023-03-29T12:54:28.743Z,41.21
2023-03-29T12:57:01.225Z,42.34
2023-03-29T12:59:46.999Z,40.43
2023-03-29T13:02:16.985Z,41.49
2023-03-29T13:04:55.325Z,40.85
2023-03-29T13:07:22.905Z,42.86
2023-03-29T13:09:56.542Z,41.24
2023-03-29T13:12:33.635Z,41.37
2023-03-29T13:15:06.103Z,42.40
2023-03-29T13:17:33.665Z,41.53
2023-03-29T13:20:01.884Z,42.05
2023-03-29T13:23:10.669Z,42.54
2023-03-29T13:25:40.298Z,40.64
2023-03-29T13:28:32.828Z,41.55
2023-03-29T13:31:06.480Z,40.42
2023-03-29T13:33:38.272Z,40.76
2023-03-29T13:36:38.475Z,41.83
2023-03-29T13:39:09.959Z,39.92
2023-03-29T13:41:40.437Z,41.27
2023-03-29T13:44:26.517Z,42.56
2023-03-29T13:47:29.460Z,41.94
2023-03-29T13:50:01.213Z,41.39
2023-03-29T13:52:36.531Z,41.63
2023-03-29T13:55:23.601Z,39.89
2023-03-29T13:58:24.763Z,41.76
2023-03-29T14:01:07.621Z,40.60
2023-03-29T14:03:51.732Z,42.43
2023-03-29T14:06:33.389Z,41.84
2023-03-29T14:09:07.333Z,39.80
2023-03-29T14:11:35.321Z,42.13
2023-03-29T14:14:08.616Z,39.97
2023-03-29T14:16:42.093Z,40.30
2023-03-29T14:19:20.577Z,40.07
2023-03-29T14:21:52.689Z,42.73
2023-03-29T14:24:31.709Z,40.48
2023-03-29T14:27:06.410Z,40.78
2023-03-29T14:29:45.180Z,42.19
2023-03-29T14:32:16.767Z,40.94
2023-03-29T14:34:50.021Z,39.82
2023-03-29T14:37:25.438Z,39.43
2023-03-29T14:39:54.664Z,40.82
2023-03-29T14:42:32.511Z,42.56
2023-03-29T14:45:14.253Z,41.75
2023-03-29T14:47:51.645Z,43.54
2023-03-29T14:50:29.152Z,43.27
2023-03-29T14:53:01.836Z,42.27
2023-03-29T14:55:32.530Z,42.25
2023-03-29T14:58:00.873Z,43.04
2023-03-29T15:00:38.725Z,43.88
2023-03-29T15:03:13.954Z,43.71
2023-03-29T15:05:46.917Z,44.05
2023-03-29T15:09:06.835Z,44.89
2023-03-29T15:18:49.532Z,45.97
2023-03-29T15:25:54.579Z,44.98
2023-03-29T15:28:37.343Z,45.37
2023-03-29T15:31:15.298Z,46.60
2023-03-29T15:33:50.150Z,45.29
2023-03-29T15:36:40.681Z,45.82
2023-03-29T15:43:36.200Z,46.03
2023-03-29T15:52:18.951Z,46.48
2023-03-29T15:56:01.018Z,47.54
2023-03-29T15:59:15.356Z,48.07
2023-03-29T16:05:20.397Z,49.01
2023-03-29T16:08:46.367Z,49.13
2023-03-29T16:17:42.586Z,49.49
2023-03-29T16:20:22.133Z,49.00
2023-03-29T16:22:54.311Z,48.73
2023-03-29T16:25:24.968Z,49.67
2023-03-29T16:27:57.523Z,49.98
2023-03-29T16:30:40.858Z,49.63
2023-03-29T16:33:14.618Z,49.15
2023-03-29T16:35:56.009Z,49.41
2023-03-29T16:38:45.079Z,50.29
2023-03-29T16:41:17.450Z,50.88
2023-03-29T16:43:51.858Z,50.03
2023-03-29T16:46:21.219Z,51.37
2023-03-29T16:48:54.507Z,50.81
2023-03-29T16:51:22.677Z,51.67
2023-03-29T16:53:53.404Z,51.11
2023-03-29T16:56:21.055Z,51.80
2023-03-29T16:58:48.694Z,51.43
2023-03-29T17:01:18.125Z,51.34
2023-03-29T17:03:45.790Z,51.81
2023-03-29T17:06:16.242Z,52.40
2023-03-29T17:08:44.513Z,52.76
2023-03-29T17:11:16.517Z,54.12
2023-03-29T17:13:54.636Z,53.49
2023-03-29T17:16:42.711Z,53.33
2023-03-29T17:19:20.914Z,55.05
2023-03-29T17:21:51.757Z,55.55
2023-03-29T17:24:19.530Z,55.30
2023-03-29T17:26:47.472Z,56.00
2023-03-29T17:29:18.955Z,56.33
2023-03-29T17:31:51.170Z,57.68
2023-03-29T17:34:24.259Z,58.00
2023-03-29T17:36:53.498Z,57.73
2023-03-29T17:39:25.563Z,59.04
2023-03-29T17:41:56.509Z,59.58
2023-03-29T17:44:24.285Z,59.29
2023-03-29T17:46:55.469Z,59.94
2023-03-29T17:49:28.735Z,60.38
2023-03-29T17:51:57.552Z,59.98
2023-03-29T17:54:25.545Z,60.37
2023-03-29T17:57:18.847Z,60.06
2023-03-29T17:59:47.224Z,60.86
2023-03-29T18:02:20.210Z,60.65
2023-03-29T18:04:50.220Z,61.01
2023-03-29T18:07:20.122Z,60.87
2023-03-29T18:09:47.795Z,62.71
2023-03-29T18:12:15.638Z,63.36
2023-03-29T18:14:43.237Z,64.01
2023-03-29T18:17:10.936Z,65.52
2023-03-29T18:19:43.016Z,66.36
2023-03-29T18:22:12.666Z,66.68
2023-03-29T18:24:42.061Z,65.72
2023-03-29T18:27:12.848Z,66.22
2023-03-29T18:29:40.984Z,66.78
2023-03-29T18:32:25.226Z,66.72
2023-03-29T18:34:52.885Z,67.09
2023-03-29T18:37:52.680Z,67.85
2023-03-29T18:40:32.098Z,68.02
2023-03-29T18:43:44.350Z,68.33
2023-03-29T18:46:21.176Z,68.05
2023-03-29T18:53:00.133Z,66.98
2023-03-29T19:14:52.912Z,67.75
2023-03-29T19:17:38.885Z,68.34
2023-03-29T19:26:27.218Z,69.80
2023-03-29T19:29:15.103Z,71.56
2023-03-29T19:31:56.831Z,72.87
2023-03-29T19:34:33.520Z,75.42
2023-03-29T19:37:11.134Z,74.16
2023-03-29T19:39:52.235Z,74.21
2023-03-29T19:42:49.613Z,75.85
2023-03-29T19:45:23.064Z,75.96
2023-03-29T19:48:02.946Z,75.09
2023-03-29T19:50:35.713Z,72.89
2023-03-29T19:53:09.915Z,73.35
2023-03-29T19:56:05.025Z,72.95
2023-03-29T19:58:40.145Z,74.38
2023-03-29T20:01:16.832Z,74.89
2023-03-29T20:08:55.227Z,76.52
2023-03-29T20:11:27.135Z,75.85
2023-03-29T20:17:44.273Z,75.78
2023-03-29T20:21:57.816Z,75.60
2023-03-29T20:32:26.245Z,72.91
2023-03-29T20:38:30.859Z,71.49
2023-03-29T20:44:46.409Z,69.59
2023-03-29T20:49:30.697Z,70.80
2023-03-29T20:52:41.108Z,69.13
2023-03-29T21:07:19.615Z,71.13
2023-03-29T21:30:20.831Z,71.91
2023-03-29T21:32:51.258Z,72.52
2023-03-29T21:38:51.067Z,73.83
2023-03-29T21:41:22.202Z,73.51
2023-03-29T21:44:41.062Z,73.45
2023-03-29T21:48:15.082Z,72.96
2023-03-29T21:51:32.954Z,74.58
2023-03-29T21:54:03.106Z,73.15
2023-03-29T21:57:23.987Z,73.56
2023-03-29T21:59:51.964Z,75.36
2023-03-29T22:02:51.764Z,76.57
2023-03-29T22:05:20.688Z,77.23
2023-03-29T22:07:50.631Z,75.45
2023-03-29T22:10:22.988Z,75.07
2023-03-29T22:12:53.347Z,73.82
2023-03-29T22:15:21.120Z,74.45
2023-03-29T22:20:52.023Z,73.89
2023-03-29T22:23:22.300Z,73.70
2023-03-29T22:27:47.345Z,75.42
2023-03-29T22:35:24.957Z,75.75
2023-03-29T22:38:17.794Z,76.87
2023-03-29T22:42:06.838Z,76.60
2023-03-29T23:12:22.222Z,79.42
2023-03-29T23:14:55.897Z,79.08
2023-03-29T23:18:13.119Z,80.82
2023-03-29T23:21:19.583Z,79.12
2023-03-29T23:23:47.039Z,79.00
2023-03-29T23:26:37.934Z,77.46
2023-03-29T23:29:05.611Z,78.81
2023-03-29T23:35:53.729Z,79.86
2023-03-29T23:39:05.782Z,79.29
2023-03-29T23:41:33.500Z,80.35
2023-03-29T23:44:01.071Z,80.15
2023-03-29T23:46:29.611Z,79.02
2023-03-29T23:48:57.171Z,77.71
2023-03-29T23:51:45.136Z,80.64
2023-03-29T23:55:12.584Z,79.93
2023-03-29T23:58:25.125Z,79.60
